Terminal Aerodrome Forecast
Issued by NWS Boise, ID

Home | Current Version | Previous Version | Text Only | Print | Product List | Glossary On
Versions: 1 2 3 4 5 6 7 8 9 10 11 12 13 14 15 16 17 18 19 20 21 22 23 24 25 26
526
FTUS45 KBOI 272323
TAFBOI
TAF
KBOI 272323Z 2800/2824 32015G20KT P6SM FEW100 SCT250
     FM280200 30007KT P6SM SKC
     FM282100 32011G16KT P6SM SCT250=

USA.gov is the U.S. government's official web portal to all federal, state and local government web resources and services.